sensor_id;sensor_type;location;lat;lon;timestamp;pressure;altitude;pressure_sealevel;temperature;humidity
73518;BME280;61766;60.318;25.044;2024-01-06T00:00:47;101047.71;;;-12.16;37.67
73518;BME280;61766;60.318;25.044;2024-01-06T00:03:13;101054.04;;;-12.36;37.73
73518;BME280;61766;60.318;25.044;2024-01-06T00:05:38;101055.68;;;-12.30;37.82
73518;BME280;61766;60.318;25.044;2024-01-06T00:08:04;101055.78;;;-12.34;37.83
73518;BME280;61766;60.318;25.044;2024-01-06T00:10:30;101060.90;;;-12.21;37.84
73518;BME280;61766;60.318;25.044;2024-01-06T00:12:55;101062.19;;;-12.38;37.93
73518;BME280;61766;60.318;25.044;2024-01-06T00:15:21;101063.40;;;-12.36;38.07
73518;BME280;61766;60.318;25.044;2024-01-06T00:17:46;101064.35;;;-12.56;38.26
73518;BME280;61766;60.318;25.044;2024-01-06T00:20:12;101069.98;;;-12.80;38.36
73518;BME280;61766;60.318;25.044;2024-01-06T00:22:38;101075.27;;;-12.70;38.78
73518;BME280;61766;60.318;25.044;2024-01-06T00:25:03;101072.19;;;-12.41;38.57
73518;BME280;61766;60.318;25.044;2024-01-06T00:27:29;101075.67;;;-12.31;38.09
73518;BME280;61766;60.318;25.044;2024-01-06T00:29:54;101079.04;;;-12.25;37.83
73518;BME280;61766;60.318;25.044;2024-01-06T00:32:20;101075.57;;;-11.95;37.31
73518;BME280;61766;60.318;25.044;2024-01-06T00:34:45;101079.38;;;-12.28;37.85
73518;BME280;61766;60.318;25.044;2024-01-06T00:37:11;101080.92;;;-12.01;37.60
73518;BME280;61766;60.318;25.044;2024-01-06T00:39:37;101084.63;;;-12.13;37.91
73518;BME280;61766;60.318;25.044;2024-01-06T00:42:03;101085.37;;;-12.06;37.61
73518;BME280;61766;60.318;25.044;2024-01-06T00:44:28;101091.75;;;-12.01;37.39
73518;BME280;61766;60.318;25.044;2024-01-06T00:46:54;101096.01;;;-12.26;37.61
73518;BME280;61766;60.318;25.044;2024-01-06T00:49:19;101100.74;;;-12.07;37.57
73518;BME280;61766;60.318;25.044;2024-01-06T00:51:45;101100.27;;;-12.00;37.70
73518;BME280;61766;60.318;25.044;2024-01-06T00:54:11;101101.67;;;-12.34;37.78
73518;BME280;61766;60.318;25.044;2024-01-06T00:56:36;101103.07;;;-12.14;37.93
73518;BME280;61766;60.318;25.044;2024-01-06T00:59:02;101110.00;;;-12.09;37.63
73518;BME280;61766;60.318;25.044;2024-01-06T01:01:28;101117.31;;;-12.46;38.05
73518;BME280;61766;60.318;25.044;2024-01-06T01:03:53;101118.23;;;-12.15;37.93
73518;BME280;61766;60.318;25.044;2024-01-06T01:06:19;101120.30;;;-12.55;38.25
73518;BME280;61766;60.318;25.044;2024-01-06T01:08:45;101123.02;;;-12.32;38.10
73518;BME280;61766;60.318;25.044;2024-01-06T01:11:10;101129.17;;;-12.13;37.74
73518;BME280;61766;60.318;25.044;2024-01-06T01:13:36;101132.78;;;-12.32;37.75
73518;BME280;61766;60.318;25.044;2024-01-06T01:16:01;101132.75;;;-11.98;37.56
73518;BME280;61766;60.318;25.044;2024-01-06T01:18:27;101137.51;;;-12.08;37.28
73518;BME280;61766;60.318;25.044;2024-01-06T01:20:52;101138.01;;;-11.93;37.44
73518;BME280;61766;60.318;25.044;2024-01-06T01:23:18;101139.38;;;-11.86;36.92
73518;BME280;61766;60.318;25.044;2024-01-06T01:25:43;101139.76;;;-11.67;36.88
73518;BME280;61766;60.318;25.044;2024-01-06T01:28:09;101139.25;;;-11.76;37.00
73518;BME280;61766;60.318;25.044;2024-01-06T01:30:35;101139.06;;;-11.99;36.98
73518;BME280;61766;60.318;25.044;2024-01-06T01:33:00;101140.12;;;-11.73;37.04
73518;BME280;61766;60.318;25.044;2024-01-06T01:35:26;101142.36;;;-11.84;36.60
73518;BME280;61766;60.318;25.044;2024-01-06T01:37:52;101145.03;;;-11.48;36.64
73518;BME280;61766;60.318;25.044;2024-01-06T01:40:17;101147.71;;;-12.15;36.77
73518;BME280;61766;60.318;25.044;2024-01-06T01:42:43;101147.25;;;-11.54;36.59
73518;BME280;61766;60.318;25.044;2024-01-06T01:45:09;101149.09;;;-11.91;36.90
73518;BME280;61766;60.318;25.044;2024-01-06T01:47:34;101149.66;;;-12.20;37.01
73518;BME280;61766;60.318;25.044;2024-01-06T01:50:01;101151.23;;;-11.88;37.03
73518;BME280;61766;60.318;25.044;2024-01-06T01:52:26;101151.06;;;-12.00;36.85
73518;BME280;61766;60.318;25.044;2024-01-06T01:54:51;101147.43;;;-12.18;36.97
73518;BME280;61766;60.318;25.044;2024-01-06T01:57:17;101152.29;;;-12.05;37.30
73518;BME280;61766;60.318;25.044;2024-01-06T01:59:43;101153.32;;;-11.93;37.29
73518;BME280;61766;60.318;25.044;2024-01-06T02:02:08;101158.31;;;-12.08;36.98
73518;BME280;61766;60.318;25.044;2024-01-06T02:04:33;101159.53;;;-11.91;36.88
73518;BME280;61766;60.318;25.044;2024-01-06T02:06:59;101164.33;;;-11.97;37.16
73518;BME280;61766;60.318;25.044;2024-01-06T02:09:25;101160.60;;;-11.55;36.85
73518;BME280;61766;60.318;25.044;2024-01-06T02:11:52;101155.67;;;-12.13;36.93
73518;BME280;61766;60.318;25.044;2024-01-06T02:14:16;101152.08;;;-12.10;36.75
73518;BME280;61766;60.318;25.044;2024-01-06T02:16:42;101154.88;;;-11.97;36.61
73518;BME280;61766;60.318;25.044;2024-01-06T02:19:10;101155.26;;;-11.70;36.46
73518;BME280;61766;60.318;25.044;2024-01-06T02:21:35;101156.03;;;-11.16;36.27
73518;BME280;61766;60.318;25.044;2024-01-06T02:23:59;101164.34;;;-11.34;36.36
73518;BME280;61766;60.318;25.044;2024-01-06T02:26:24;101162.68;;;-11.70;36.65
73518;BME280;61766;60.318;25.044;2024-01-06T02:28:50;101165.43;;;-11.96;36.42
73518;BME280;61766;60.318;25.044;2024-01-06T02:31:17;101163.64;;;-11.43;35.92
73518;BME280;61766;60.318;25.044;2024-01-06T02:33:41;101168.38;;;-11.40;35.54
73518;BME280;61766;60.318;25.044;2024-01-06T02:36:07;101172.15;;;-11.84;36.08
73518;BME280;61766;60.318;25.044;2024-01-06T02:38:33;101176.92;;;-11.93;36.21
73518;BME280;61766;60.318;25.044;2024-01-06T02:40:58;101184.20;;;-12.01;36.66
73518;BME280;61766;60.318;25.044;2024-01-06T02:43:24;101183.42;;;-11.76;36.37
73518;BME280;61766;60.318;25.044;2024-01-06T02:45:50;101186.07;;;-11.54;36.13
73518;BME280;61766;60.318;25.044;2024-01-06T02:48:16;101187.07;;;-12.07;36.22
73518;BME280;61766;60.318;25.044;2024-01-06T02:50:41;101190.45;;;-11.77;36.59
73518;BME280;61766;60.318;25.044;2024-01-06T02:53:07;101192.47;;;-11.82;36.25
73518;BME280;61766;60.318;25.044;2024-01-06T02:55:33;101195.42;;;-11.57;36.09
73518;BME280;61766;60.318;25.044;2024-01-06T02:57:58;101202.84;;;-12.07;36.40
73518;BME280;61766;60.318;25.044;2024-01-06T03:00:24;101204.66;;;-12.08;36.14
73518;BME280;61766;60.318;25.044;2024-01-06T03:02:49;101202.26;;;-12.06;35.90
73518;BME280;61766;60.318;25.044;2024-01-06T03:05:15;101207.65;;;-11.48;35.79
73518;BME280;61766;60.318;25.044;2024-01-06T03:07:41;101213.41;;;-11.75;35.79
73518;BME280;61766;60.318;25.044;2024-01-06T03:10:07;101220.52;;;-11.98;35.50
73518;BME280;61766;60.318;25.044;2024-01-06T03:12:32;101221.84;;;-11.68;35.49
73518;BME280;61766;60.318;25.044;2024-01-06T03:14:59;101229.01;;;-11.68;35.12
73518;BME280;61766;60.318;25.044;2024-01-06T03:17:23;101229.20;;;-11.71;35.13
73518;BME280;61766;60.318;25.044;2024-01-06T03:19:49;101229.63;;;-11.81;35.07
73518;BME280;61766;60.318;25.044;2024-01-06T03:22:14;101231.07;;;-11.56;35.16
73518;BME280;61766;60.318;25.044;2024-01-06T03:24:40;101231.27;;;-11.52;35.20
73518;BME280;61766;60.318;25.044;2024-01-06T03:27:06;101228.73;;;-11.86;35.04
73518;BME280;61766;60.318;25.044;2024-01-06T03:29:31;101232.38;;;-11.75;34.90
73518;BME280;61766;60.318;25.044;2024-01-06T03:31:57;101235.29;;;-11.21;34.97
73518;BME280;61766;60.318;25.044;2024-01-06T03:34:23;101243.12;;;-11.45;35.02
73518;BME280;61766;60.318;25.044;2024-01-06T03:36:48;101244.01;;;-11.53;34.57
73518;BME280;61766;60.318;25.044;2024-01-06T03:39:14;101245.87;;;-11.65;34.78
73518;BME280;61766;60.318;25.044;2024-01-06T03:41:40;101248.98;;;-11.69;34.48
73518;BME280;61766;60.318;25.044;2024-01-06T03:44:05;101251.74;;;-11.39;34.35
73518;BME280;61766;60.318;25.044;2024-01-06T03:46:32;101251.94;;;-11.55;34.33
73518;BME280;61766;60.318;25.044;2024-01-06T03:48:57;101254.97;;;-11.78;34.35
73518;BME280;61766;60.318;25.044;2024-01-06T03:51:22;101259.71;;;-11.83;34.41
73518;BME280;61766;60.318;25.044;2024-01-06T03:53:48;101265.01;;;-11.96;34.63
73518;BME280;61766;60.318;25.044;2024-01-06T03:56:14;101267.06;;;-12.00;34.58
73518;BME280;61766;60.318;25.044;2024-01-06T03:58:39;101266.53;;;-11.81;34.23
73518;BME280;61766;60.318;25.044;2024-01-06T04:01:05;101268.87;;;-11.96;34.19
73518;BME280;61766;60.318;25.044;2024-01-06T04:03:31;101272.49;;;-11.55;34.47
73518;BME280;61766;60.318;25.044;2024-01-06T04:05:56;101275.46;;;-12.10;34.61
73518;BME280;61766;60.318;25.044;2024-01-06T04:08:22;101273.32;;;-12.24;34.95
73518;BME280;61766;60.318;25.044;2024-01-06T04:10:48;101281.82;;;-12.01;35.15
73518;BME280;61766;60.318;25.044;2024-01-06T04:13:14;101284.14;;;-12.19;34.95
73518;BME280;61766;60.318;25.044;2024-01-06T04:15:40;101290.64;;;-12.14;35.11
73518;BME280;61766;60.318;25.044;2024-01-06T04:18:05;101297.63;;;-12.31;35.34
73518;BME280;61766;60.318;25.044;2024-01-06T04:20:30;101301.63;;;-12.46;35.62
73518;BME280;61766;60.318;25.044;2024-01-06T04:22:56;101302.82;;;-12.51;35.69
73518;BME280;61766;60.318;25.044;2024-01-06T04:25:22;101307.70;;;-12.12;35.43
73518;BME280;61766;60.318;25.044;2024-01-06T04:27:47;101308.60;;;-12.57;35.44
73518;BME280;61766;60.318;25.044;2024-01-06T04:30:13;101317.25;;;-11.93;35.09
73518;BME280;61766;60.318;25.044;2024-01-06T04:32:39;101320.36;;;-12.12;34.98
73518;BME280;61766;60.318;25.044;2024-01-06T04:35:05;101323.81;;;-12.03;34.95
73518;BME280;61766;60.318;25.044;2024-01-06T04:37:30;101334.40;;;-11.81;34.95
73518;BME280;61766;60.318;25.044;2024-01-06T04:39:55;101337.82;;;-11.80;34.87
73518;BME280;61766;60.318;25.044;2024-01-06T04:42:21;101345.19;;;-12.05;34.99
73518;BME280;61766;60.318;25.044;2024-01-06T04:44:47;101348.51;;;-12.17;35.30
73518;BME280;61766;60.318;25.044;2024-01-06T04:47:12;101357.10;;;-12.00;34.99
73518;BME280;61766;60.318;25.044;2024-01-06T04:49:38;101366.35;;;-11.82;34.73
73518;BME280;61766;60.318;25.044;2024-01-06T04:52:04;101370.62;;;-12.22;34.46
73518;BME280;61766;60.318;25.044;2024-01-06T04:54:29;101372.25;;;-11.58;34.23
73518;BME280;61766;60.318;25.044;2024-01-06T04:56:55;101375.41;;;-11.56;34.11
73518;BME280;61766;60.318;25.044;2024-01-06T04:59:21;101376.22;;;-11.94;34.36
73518;BME280;61766;60.318;25.044;2024-01-06T05:01:47;101379.76;;;-11.69;34.24
73518;BME280;61766;60.318;25.044;2024-01-06T05:04:12;101383.39;;;-11.85;34.22
73518;BME280;61766;60.318;25.044;2024-01-06T05:06:38;101386.85;;;-11.59;34.02
73518;BME280;61766;60.318;25.044;2024-01-06T05:09:04;101394.44;;;-11.79;33.59
73518;BME280;61766;60.318;25.044;2024-01-06T05:11:29;101403.31;;;-11.82;33.34
73518;BME280;61766;60.318;25.044;2024-01-06T05:13:55;101405.10;;;-11.83;33.36
73518;BME280;61766;60.318;25.044;2024-01-06T05:16:21;101403.59;;;-11.88;33.20
73518;BME280;61766;60.318;25.044;2024-01-06T05:18:46;101403.19;;;-11.86;33.22
73518;BME280;61766;60.318;25.044;2024-01-06T05:21:12;101408.51;;;-11.89;33.06
73518;BME280;61766;60.318;25.044;2024-01-06T05:23:38;101413.20;;;-11.89;33.24
73518;BME280;61766;60.318;25.044;2024-01-06T05:26:03;101423.52;;;-11.64;32.82
73518;BME280;61766;60.318;25.044;2024-01-06T05:28:29;101426.66;;;-11.59;32.72
73518;BME280;61766;60.318;25.044;2024-01-06T05:30:54;101433.02;;;-11.45;32.44
73518;BME280;61766;60.318;25.044;2024-01-06T05:33:20;101435.16;;;-11.31;32.30
73518;BME280;61766;60.318;25.044;2024-01-06T05:35:46;101439.80;;;-11.57;32.11
73518;BME280;61766;60.318;25.044;2024-01-06T05:38:11;101440.18;;;-11.45;32.00
73518;BME280;61766;60.318;25.044;2024-01-06T05:40:37;101443.08;;;-11.54;32.12
73518;BME280;61766;60.318;25.044;2024-01-06T05:43:03;101449.20;;;-11.77;32.14
73518;BME280;61766;60.318;25.044;2024-01-06T05:45:28;101454.18;;;-11.63;32.59
73518;BME280;61766;60.318;25.044;2024-01-06T05:47:54;101455.99;;;-12.12;32.65
73518;BME280;61766;60.318;25.044;2024-01-06T05:50:20;101456.49;;;-12.14;32.51
73518;BME280;61766;60.318;25.044;2024-01-06T05:52:45;101460.50;;;-11.87;32.59
73518;BME280;61766;60.318;25.044;2024-01-06T05:55:11;101463.53;;;-11.99;32.43
73518;BME280;61766;60.318;25.044;2024-01-06T05:57:37;101468.63;;;-11.92;32.26
73518;BME280;61766;60.318;25.044;2024-01-06T06:00:03;101473.68;;;-11.53;32.01
73518;BME280;61766;60.318;25.044;2024-01-06T06:02:28;101481.30;;;-11.91;32.08
73518;BME280;61766;60.318;25.044;2024-01-06T06:04:54;101483.77;;;-11.82;31.97
73518;BME280;61766;60.318;25.044;2024-01-06T06:07:22;101493.28;;;-11.60;32.00
73518;BME280;61766;60.318;25.044;2024-01-06T06:09:45;101495.67;;;-11.87;32.08
73518;BME280;61766;60.318;25.044;2024-01-06T06:12:11;101499.92;;;-11.79;31.88
73518;BME280;61766;60.318;25.044;2024-01-06T06:14:37;101502.78;;;-11.69;31.68
73518;BME280;61766;60.318;25.044;2024-01-06T06:17:02;101505.32;;;-11.86;31.67
73518;BME280;61766;60.318;25.044;2024-01-06T06:19:27;101507.31;;;-11.79;31.54
73518;BME280;61766;60.318;25.044;2024-01-06T06:21:54;101511.96;;;-11.81;31.48
73518;BME280;61766;60.318;25.044;2024-01-06T06:24:18;101516.15;;;-11.70;31.42
73518;BME280;61766;60.318;25.044;2024-01-06T06:26:44;101516.10;;;-11.59;31.35
73518;BME280;61766;60.318;25.044;2024-01-06T06:29:09;101514.03;;;-11.50;31.08
73518;BME280;61766;60.318;25.044;2024-01-06T06:31:35;101525.33;;;-11.43;30.82
73518;BME280;61766;60.318;25.044;2024-01-06T06:34:01;101528.57;;;-11.35;30.75
73518;BME280;61766;60.318;25.044;2024-01-06T06:36:26;101529.25;;;-11.27;30.57
73518;BME280;61766;60.318;25.044;2024-01-06T06:38:52;101530.20;;;-11.22;30.42
73518;BME280;61766;60.318;25.044;2024-01-06T06:41:28;101536.47;;;-11.39;30.35
73518;BME280;61766;60.318;25.044;2024-01-06T06:43:50;101536.42;;;-11.37;30.46
73518;BME280;61766;60.318;25.044;2024-01-06T06:46:15;101535.05;;;-11.45;30.45
73518;BME280;61766;60.318;25.044;2024-01-06T06:48:41;101539.58;;;-11.53;30.62
73518;BME280;61766;60.318;25.044;2024-01-06T06:51:07;101542.31;;;-11.53;30.52
73518;BME280;61766;60.318;25.044;2024-01-06T06:53:26;101543.71;;;-11.52;30.51
73518;BME280;61766;60.318;25.044;2024-01-06T06:55:52;101551.05;;;-11.42;30.44
73518;BME280;61766;60.318;25.044;2024-01-06T06:58:17;101553.55;;;-11.35;30.28
73518;BME280;61766;60.318;25.044;2024-01-06T07:00:43;101556.35;;;-11.60;30.18
73518;BME280;61766;60.318;25.044;2024-01-06T07:03:09;101564.05;;;-11.36;30.19
73518;BME280;61766;60.318;25.044;2024-01-06T07:05:34;101568.36;;;-11.73;30.31
73518;BME280;61766;60.318;25.044;2024-01-06T07:08:00;101573.50;;;-11.55;30.51
73518;BME280;61766;60.318;25.044;2024-01-06T07:10:26;101583.25;;;-11.60;30.48
73518;BME280;61766;60.318;25.044;2024-01-06T07:12:53;101587.40;;;-11.62;30.42
73518;BME280;61766;60.318;25.044;2024-01-06T07:15:17;101587.21;;;-11.56;30.39
73518;BME280;61766;60.318;25.044;2024-01-06T07:17:42;101591.05;;;-11.51;30.45
73518;BME280;61766;60.318;25.044;2024-01-06T07:20:09;101591.45;;;-11.51;30.48
73518;BME280;61766;60.318;25.044;2024-01-06T07:22:34;101594.17;;;-11.42;30.37
73518;BME280;61766;60.318;25.044;2024-01-06T07:24:59;101598.52;;;-11.69;30.40
73518;BME280;61766;60.318;25.044;2024-01-06T07:27:25;101600.63;;;-11.44;30.44
73518;BME280;61766;60.318;25.044;2024-01-06T07:29:50;101608.72;;;-11.39;30.36
73518;BME280;61766;60.318;25.044;2024-01-06T07:32:16;101612.12;;;-11.39;30.25
73518;BME280;61766;60.318;25.044;2024-01-06T07:34:41;101615.56;;;-11.38;30.07
73518;BME280;61766;60.318;25.044;2024-01-06T07:37:06;101620.57;;;-11.59;30.39
73518;BME280;61766;60.318;25.044;2024-01-06T07:39:31;101623.38;;;-11.50;30.52
73518;BME280;61766;60.318;25.044;2024-01-06T07:41:57;101623.86;;;-11.40;30.36
73518;BME280;61766;60.318;25.044;2024-01-06T07:44:22;101627.75;;;-11.41;30.22
73518;BME280;61766;60.318;25.044;2024-01-06T07:46:48;101630.80;;;-11.41;30.08
73518;BME280;61766;60.318;25.044;2024-01-06T07:49:13;101635.28;;;-11.56;30.23
73518;BME280;61766;60.318;25.044;2024-01-06T07:51:39;101638.31;;;-11.80;30.13
73518;BME280;61766;60.318;25.044;2024-01-06T07:54:04;101639.86;;;-11.47;30.13
73518;BME280;61766;60.318;25.044;2024-01-06T07:56:29;101642.56;;;-11.49;30.17
73518;BME280;61766;60.318;25.044;2024-01-06T07:58:55;101648.12;;;-11.54;30.20
73518;BME280;61766;60.318;25.044;2024-01-06T08:01:20;101653.01;;;-11.48;30.25
73518;BME280;61766;60.318;25.044;2024-01-06T08:03:45;101658.08;;;-11.43;30.27
73518;BME280;61766;60.318;25.044;2024-01-06T08:06:11;101661.74;;;-11.17;30.17
73518;BME280;61766;60.318;25.044;2024-01-06T08:08:37;101663.66;;;-11.40;30.30
73518;BME280;61766;60.318;25.044;2024-01-06T08:11:02;101663.06;;;-11.62;30.38
73518;BME280;61766;60.318;25.044;2024-01-06T08:13:28;101666.62;;;-11.33;30.44
73518;BME280;61766;60.318;25.044;2024-01-06T08:15:53;101669.07;;;-11.26;30.57
73518;BME280;61766;60.318;25.044;2024-01-06T08:18:19;101674.72;;;-11.32;30.76
73518;BME280;61766;60.318;25.044;2024-01-06T08:20:45;101677.03;;;-11.36;30.86
73518;BME280;61766;60.318;25.044;2024-01-06T08:23:10;101678.57;;;-11.48;30.67
73518;BME280;61766;60.318;25.044;2024-01-06T08:25:35;101681.03;;;-11.48;30.64
73518;BME280;61766;60.318;25.044;2024-01-06T08:28:00;101688.83;;;-11.38;30.79
73518;BME280;61766;60.318;25.044;2024-01-06T08:30:26;101695.86;;;-11.10;30.66
73518;BME280;61766;60.318;25.044;2024-01-06T08:32:51;101704.17;;;-11.07;30.71
73518;BME280;61766;60.318;25.044;2024-01-06T08:35:16;101707.70;;;-11.25;30.92
73518;BME280;61766;60.318;25.044;2024-01-06T08:37:42;101716.39;;;-11.28;31.04
73518;BME280;61766;60.318;25.044;2024-01-06T08:40:08;101718.09;;;-11.43;31.10
73518;BME280;61766;60.318;25.044;2024-01-06T08:42:32;101725.21;;;-11.27;31.24
73518;BME280;61766;60.318;25.044;2024-01-06T08:44:58;101729.11;;;-11.23;31.32
73518;BME280;61766;60.318;25.044;2024-01-06T08:47:23;101731.84;;;-11.16;31.14
73518;BME280;61766;60.318;25.044;2024-01-06T08:49:50;101736.10;;;-11.29;31.32
73518;BME280;61766;60.318;25.044;2024-01-06T08:52:14;101743.78;;;-11.39;31.50
73518;BME280;61766;60.318;25.044;2024-01-06T08:54:39;101750.63;;;-11.70;31.94
73518;BME280;61766;60.318;25.044;2024-01-06T08:57:05;101756.00;;;-11.48;31.97
73518;BME280;61766;60.318;25.044;2024-01-06T08:59:30;101760.70;;;-11.65;32.06
73518;BME280;61766;60.318;25.044;2024-01-06T09:01:55;101764.44;;;-11.61;31.99
73518;BME280;61766;60.318;25.044;2024-01-06T09:04:21;101770.75;;;-11.36;31.81
73518;BME280;61766;60.318;25.044;2024-01-06T09:06:57;101776.36;;;-11.51;31.95
73518;BME280;61766;60.318;25.044;2024-01-06T09:09:19;101776.85;;;-11.66;32.28
73518;BME280;61766;60.318;25.044;2024-01-06T09:11:44;101782.16;;;-11.35;32.32
73518;BME280;61766;60.318;25.044;2024-01-06T09:14:10;101783.86;;;-11.18;32.16
73518;BME280;61766;60.318;25.044;2024-01-06T09:16:29;101786.31;;;-11.09;32.16
73518;BME280;61766;60.318;25.044;2024-01-06T09:18:55;101789.92;;;-11.68;32.88
73518;BME280;61766;60.318;25.044;2024-01-06T09:21:20;101790.87;;;-11.54;32.81
73518;BME280;61766;60.318;25.044;2024-01-06T09:23:46;101795.33;;;-11.50;32.88
73518;BME280;61766;60.318;25.044;2024-01-06T09:26:11;101801.97;;;-11.30;32.78
73518;BME280;61766;60.318;25.044;2024-01-06T09:28:37;101803.59;;;-11.31;32.60
73518;BME280;61766;60.318;25.044;2024-01-06T09:31:02;101805.30;;;-11.02;32.65
73518;BME280;61766;60.318;25.044;2024-01-06T09:33:27;101804.78;;;-11.08;32.49
73518;BME280;61766;60.318;25.044;2024-01-06T09:35:53;101812.52;;;-10.78;32.19
73518;BME280;61766;60.318;25.044;2024-01-06T09:38:19;101811.99;;;-11.23;32.64
73518;BME280;61766;60.318;25.044;2024-01-06T09:40:44;101817.46;;;-11.15;32.68
73518;BME280;61766;60.318;25.044;2024-01-06T09:43:09;101815.50;;;-11.46;33.18
73518;BME280;61766;60.318;25.044;2024-01-06T09:45:35;101821.39;;;-11.47;33.48
73518;BME280;61766;60.318;25.044;2024-01-06T09:48:07;101828.27;;;-11.24;33.34
73518;BME280;61766;60.318;25.044;2024-01-06T09:50:26;101833.47;;;-11.54;33.54
73518;BME280;61766;60.318;25.044;2024-01-06T09:52:52;101836.94;;;-11.29;33.53
73518;BME280;61766;60.318;25.044;2024-01-06T09:55:17;101841.13;;;-11.25;33.58
73518;BME280;61766;60.318;25.044;2024-01-06T09:57:45;101843.79;;;-11.46;33.65
73518;BME280;61766;60.318;25.044;2024-01-06T10:00:09;101843.43;;;-11.52;33.94
73518;BME280;61766;60.318;25.044;2024-01-06T10:02:34;101848.67;;;-11.11;33.76
73518;BME280;61766;60.318;25.044;2024-01-06T10:04:59;101854.34;;;-10.85;33.66
73518;BME280;61766;60.318;25.044;2024-01-06T10:07:26;101860.27;;;-11.09;33.58
73518;BME280;61766;60.318;25.044;2024-01-06T10:09:50;101866.30;;;-10.84;33.32
73518;BME280;61766;60.318;25.044;2024-01-06T10:12:16;101870.64;;;-10.84;33.16
73518;BME280;61766;60.318;25.044;2024-01-06T10:14:42;101873.45;;;-10.82;33.40
73518;BME280;61766;60.318;25.044;2024-01-06T10:17:08;101880.22;;;-11.12;33.39
73518;BME280;61766;60.318;25.044;2024-01-06T10:19:33;101881.27;;;-10.89;33.84
73518;BME280;61766;60.318;25.044;2024-01-06T10:21:58;101886.48;;;-11.49;34.54
73518;BME280;61766;60.318;25.044;2024-01-06T10:24:23;101893.21;;;-11.50;34.72
73518;BME280;61766;60.318;25.044;2024-01-06T10:26:49;101894.28;;;-11.06;34.80
73518;BME280;61766;60.318;25.044;2024-01-06T10:29:15;101898.97;;;-11.46;34.63
73518;BME280;61766;60.318;25.044;2024-01-06T10:31:41;101900.54;;;-11.47;35.44
73518;BME280;61766;60.318;25.044;2024-01-06T10:34:06;101902.39;;;-11.74;35.85
73518;BME280;61766;60.318;25.044;2024-01-06T10:36:31;101903.16;;;-11.64;35.84
73518;BME280;61766;60.318;25.044;2024-01-06T10:38:57;101903.09;;;-11.96;35.67
73518;BME280;61766;60.318;25.044;2024-01-06T10:41:23;101904.24;;;-11.65;35.54
73518;BME280;61766;60.318;25.044;2024-01-06T10:43:51;101910.26;;;-11.84;35.85
73518;BME280;61766;60.318;25.044;2024-01-06T10:46:14;101914.67;;;-11.69;35.77
73518;BME280;61766;60.318;25.044;2024-01-06T10:48:39;101917.97;;;-11.79;35.70
73518;BME280;61766;60.318;25.044;2024-01-06T10:51:04;101920.48;;;-11.36;35.77
73518;BME280;61766;60.318;25.044;2024-01-06T10:53:29;101921.31;;;-11.16;35.42
73518;BME280;61766;60.318;25.044;2024-01-06T10:55:59;101920.59;;;-11.37;35.48
73518;BME280;61766;60.318;25.044;2024-01-06T10:58:21;101921.39;;;-11.61;35.50
73518;BME280;61766;60.318;25.044;2024-01-06T11:00:47;101929.84;;;-11.44;35.26
73518;BME280;61766;60.318;25.044;2024-01-06T11:03:13;101932.59;;;-11.26;35.17
73518;BME280;61766;60.318;25.044;2024-01-06T11:05:38;101940.60;;;-11.04;34.93
73518;BME280;61766;60.318;25.044;2024-01-06T11:08:03;101944.59;;;-11.18;34.92
73518;BME280;61766;60.318;25.044;2024-01-06T11:10:28;101946.54;;;-11.11;34.40
73518;BME280;61766;60.318;25.044;2024-01-06T11:13:08;101949.75;;;-10.88;34.11
73518;BME280;61766;60.318;25.044;2024-01-06T11:17:54;101945.84;;;-10.74;33.73
73518;BME280;61766;60.318;25.044;2024-01-06T11:20:11;101950.40;;;-10.50;33.50
73518;BME280;61766;60.318;25.044;2024-01-06T11:22:35;101952.32;;;-10.55;33.55
73518;BME280;61766;60.318;25.044;2024-01-06T11:25:04;101954.16;;;-10.17;33.20
73518;BME280;61766;60.318;25.044;2024-01-06T11:27:27;101955.43;;;-10.78;33.45
73518;BME280;61766;60.318;25.044;2024-01-06T11:29:51;101957.58;;;-10.55;33.77
73518;BME280;61766;60.318;25.044;2024-01-06T11:32:18;101958.96;;;-10.44;33.61
73518;BME280;61766;60.318;25.044;2024-01-06T11:34:42;101966.83;;;-10.69;34.10
73518;BME280;61766;60.318;25.044;2024-01-06T11:37:08;101965.25;;;-10.81;34.20
73518;BME280;61766;60.318;25.044;2024-01-06T11:39:34;101964.92;;;-10.87;34.12
73518;BME280;61766;60.318;25.044;2024-01-06T11:41:58;101965.16;;;-10.60;34.08
73518;BME280;61766;60.318;25.044;2024-01-06T11:44:24;101963.53;;;-10.87;34.15
73518;BME280;61766;60.318;25.044;2024-01-06T11:46:49;101966.14;;;-10.60;33.84
73518;BME280;61766;60.318;25.044;2024-01-06T11:49:16;101970.51;;;-10.84;34.10
73518;BME280;61766;60.318;25.044;2024-01-06T11:51:40;101971.30;;;-10.68;33.95
73518;BME280;61766;60.318;25.044;2024-01-06T11:54:05;101973.68;;;-10.87;34.08
73518;BME280;61766;60.318;25.044;2024-01-06T11:56:30;101973.17;;;-10.57;33.87
73518;BME280;61766;60.318;25.044;2024-01-06T11:58:56;101973.03;;;-10.83;34.11
73518;BME280;61766;60.318;25.044;2024-01-06T12:01:22;101972.78;;;-10.85;34.29
73518;BME280;61766;60.318;25.044;2024-01-06T12:03:54;101971.20;;;-11.01;34.50
73518;BME280;61766;60.318;25.044;2024-01-06T12:06:13;101974.14;;;-11.10;34.69
73518;BME280;61766;60.318;25.044;2024-01-06T12:08:39;101976.69;;;-10.84;34.42
73518;BME280;61766;60.318;25.044;2024-01-06T12:11:04;101978.84;;;-10.64;33.89
73518;BME280;61766;60.318;25.044;2024-01-06T12:13:31;101981.99;;;-10.45;33.75
73518;BME280;61766;60.318;25.044;2024-01-06T12:15:55;101985.26;;;-10.44;33.40
73518;BME280;61766;60.318;25.044;2024-01-06T12:18:20;101988.71;;;-10.08;33.07
73518;BME280;61766;60.318;25.044;2024-01-06T12:20:45;101988.63;;;-10.22;32.72
73518;BME280;61766;60.318;25.044;2024-01-06T12:23:10;101992.14;;;-10.20;32.65